createdAt,value
2022-10-17T00:03:23.231Z,85.61
2022-10-17T00:07:25.015Z,85.27
2022-10-17T00:11:26.847Z,85.50
2022-10-17T00:15:29.939Z,86.02
2022-10-17T00:19:31.535Z,85.72
2022-10-17T00:23:33.769Z,85.60
2022-10-17T00:27:36.201Z,85.76
2022-10-17T00:31:39.116Z,86.12
2022-10-17T00:35:40.566Z,84.25
2022-10-17T00:39:42.119Z,83.52
2022-10-17T00:43:52.816Z,82.29
2022-10-17T00:48:00.923Z,80.95
2022-10-17T00:52:06.124Z,81.30
2022-10-17T00:56:08.424Z,81.16
2022-10-17T01:00:11.672Z,82.11
2022-10-17T01:04:14.859Z,82.14
2022-10-17T01:08:16.685Z,81.73
2022-10-17T01:12:22.040Z,81.47
2022-10-17T01:16:35.609Z,80.49
2022-10-17T01:21:30.291Z,80.46
2022-10-17T01:25:45.828Z,80.82
2022-10-17T01:29:59.959Z,81.63
2022-10-17T01:34:08.304Z,82.27
2022-10-17T01:38:13.432Z,82.31
2022-10-17T01:42:20.136Z,82.84
2022-10-17T01:46:26.755Z,83.15
2022-10-17T01:50:34.331Z,83.59
2022-10-17T01:54:41.475Z,83.92
2022-10-17T01:58:48.531Z,84.83
2022-10-17T02:02:53.220Z,84.67
2022-10-17T02:06:56.040Z,85.37
2022-10-17T02:11:03.359Z,86.12
2022-10-17T02:15:17.137Z,85.47
2022-10-17T02:19:35.203Z,85.57
2022-10-17T02:23:47.419Z,85.69
2022-10-17T02:27:52.920Z,85.96
2022-10-17T02:32:00.468Z,84.87
2022-10-17T02:36:07.107Z,83.24
2022-10-17T02:40:12.596Z,82.19
2022-10-17T02:44:14.579Z,80.55
2022-10-17T02:48:22.292Z,80.13
2022-10-17T02:52:28.763Z,80.54
2022-10-17T02:56:39.803Z,79.74
2022-10-17T03:00:42.534Z,79.64
2022-10-17T03:04:45.052Z,79.14
2022-10-17T03:08:46.636Z,79.17
2022-10-17T03:12:49.395Z,78.65
2022-10-17T03:16:50.867Z,79.10
2022-10-17T03:20:52.333Z,78.33
2022-10-17T03:24:53.784Z,78.95
2022-10-17T03:28:56.720Z,79.64
2022-10-17T03:32:58.591Z,80.32
2022-10-17T03:37:00.177Z,80.08
2022-10-17T03:41:02.039Z,79.13
2022-10-17T03:45:05.729Z,79.29
2022-10-17T03:49:08.839Z,78.89
2022-10-17T03:53:10.366Z,79.37
2022-10-17T03:57:12.227Z,78.28
2022-10-17T04:01:17.728Z,77.05
2022-10-17T04:05:19.492Z,76.40
2022-10-17T04:09:21.099Z,76.95
2022-10-17T04:13:22.571Z,76.97
2022-10-17T04:17:25.836Z,76.19
2022-10-17T04:21:31.963Z,76.57
2022-10-17T04:25:36.046Z,76.70
2022-10-17T04:29:38.471Z,77.72
2022-10-17T04:33:41.651Z,76.47
2022-10-17T04:37:43.091Z,76.63
2022-10-17T04:41:44.697Z,75.53
2022-10-17T04:45:46.284Z,74.83
2022-10-17T04:49:49.055Z,74.78
2022-10-17T04:53:50.554Z,74.88
2022-10-17T04:57:52.036Z,74.97
2022-10-17T05:01:53.519Z,74.57
2022-10-17T05:05:56.563Z,74.28
2022-10-17T05:09:58.367Z,75.20
2022-10-17T05:14:01.767Z,74.36
2022-10-17T05:18:03.814Z,74.73
2022-10-17T05:22:07.191Z,74.41
2022-10-17T05:26:08.760Z,74.78
2022-10-17T05:30:11.367Z,74.97
2022-10-17T05:34:13.971Z,75.07
2022-10-17T05:38:16.909Z,74.07
2022-10-17T05:42:18.594Z,74.22
2022-10-17T05:46:20.254Z,74.33
2022-10-17T05:50:21.866Z,74.52
2022-10-17T05:54:24.929Z,74.87
2022-10-17T06:02:49.201Z,76.76
2022-10-17T06:06:50.749Z,75.99
2022-10-17T06:10:53.651Z,74.48
2022-10-17T06:14:55.132Z,75.11
2022-10-17T06:18:56.730Z,74.45
2022-10-17T06:22:58.210Z,75.04
2022-10-17T06:27:01.233Z,74.40
2022-10-17T06:31:05.089Z,73.77
2022-10-17T06:35:07.519Z,75.79
2022-10-17T06:39:08.957Z,76.56
2022-10-17T06:43:11.942Z,75.31
2022-10-17T06:47:15.380Z,75.32
2022-10-17T06:51:19.312Z,74.24
2022-10-17T06:55:23.007Z,73.96
2022-10-17T06:59:26.409Z,73.46
2022-10-17T07:03:28.558Z,72.25
2022-10-17T07:07:30.908Z,72.31
2022-10-17T07:11:34.296Z,71.34
2022-10-17T07:15:38.435Z,70.32
2022-10-17T07:19:39.869Z,70.53
2022-10-17T07:23:41.446Z,70.11
2022-10-17T07:27:43.927Z,68.33
2022-10-17T07:31:46.742Z,67.18
2022-10-17T07:35:48.166Z,66.72
2022-10-17T07:39:49.585Z,65.77
2022-10-17T07:43:51.018Z,65.78
2022-10-17T07:47:57.092Z,66.37
2022-10-17T07:51:58.606Z,65.99
2022-10-17T07:56:04.219Z,66.10
2022-10-17T08:00:07.310Z,65.89
2022-10-17T08:04:10.320Z,66.26
2022-10-17T08:08:11.729Z,66.11
2022-10-17T08:12:14.256Z,65.96
2022-10-17T08:16:15.912Z,66.21
2022-10-17T08:20:18.869Z,66.06
2022-10-17T08:24:20.600Z,66.44
2022-10-17T08:28:22.134Z,66.63
2022-10-17T08:32:26.301Z,66.24
2022-10-17T08:36:29.345Z,66.17
2022-10-17T08:40:32.019Z,66.22
2022-10-17T08:44:49.127Z,66.08
2022-10-17T08:48:52.129Z,65.96
2022-10-17T08:53:00.552Z,65.37
2022-10-17T08:57:02.053Z,65.23
2022-10-17T09:01:13.303Z,64.55
2022-10-17T09:05:27.259Z,64.56
2022-10-17T09:09:39.950Z,64.50
2022-10-17T09:13:54.675Z,65.20
2022-10-17T09:17:59.634Z,64.73
2022-10-17T09:22:04.231Z,65.16
2022-10-17T09:26:11.427Z,64.55
2022-10-17T09:30:44.259Z,64.68
2022-10-17T09:34:47.008Z,64.32
2022-10-17T09:38:50.926Z,64.43
2022-10-17T09:42:53.942Z,64.83
2022-10-17T09:47:11.144Z,65.28
2022-10-17T09:51:21.914Z,65.33
2022-10-17T09:55:34.450Z,64.56
2022-10-17T09:59:39.439Z,64.91
2022-10-17T10:03:41.008Z,63.21
2022-10-17T10:07:44.817Z,62.08
2022-10-17T10:11:49.739Z,62.76
2022-10-17T10:15:53.519Z,61.48
2022-10-17T10:19:55.349Z,61.33
2022-10-17T10:24:06.326Z,61.40
2022-10-17T10:28:10.795Z,61.02
2022-10-17T10:32:20.374Z,60.50
2022-10-17T10:36:23.263Z,60.26
2022-10-17T10:40:28.391Z,59.73
2022-10-17T10:44:31.925Z,61.10
2022-10-17T10:48:36.598Z,61.42
2022-10-17T10:52:43.662Z,59.20
2022-10-17T10:56:52.652Z,60.20
2022-10-17T11:00:57.641Z,59.94
2022-10-17T11:05:04.366Z,59.68
2022-10-17T11:09:15.986Z,58.88
2022-10-17T11:13:22.873Z,60.30
2022-10-17T11:17:32.672Z,60.91
2022-10-17T11:21:43.499Z,60.49
2022-10-17T11:25:45.579Z,60.65
2022-10-17T11:29:47.012Z,60.28
2022-10-17T11:33:52.732Z,60.05
2022-10-17T11:38:06.421Z,60.14
2022-10-17T11:42:13.004Z,60.10
2022-10-17T11:46:18.247Z,60.74
2022-10-17T11:54:52.635Z,61.56
2022-10-17T11:59:15.089Z,64.13
2022-10-17T12:03:29.285Z,62.85
2022-10-17T12:07:47.385Z,66.03
2022-10-17T12:11:53.877Z,66.56
2022-10-17T12:15:56.036Z,64.23
2022-10-17T12:20:26.047Z,62.18
2022-10-17T12:24:37.200Z,64.42
2022-10-17T12:28:44.456Z,63.77
2022-10-17T12:33:06.327Z,65.77
2022-10-17T12:37:11.158Z,68.34
2022-10-17T12:41:13.631Z,69.84
2022-10-17T12:45:47.166Z,71.22
2022-10-17T12:49:52.019Z,72.05
2022-10-17T12:53:59.315Z,72.74
2022-10-17T12:58:03.882Z,73.51
2022-10-17T13:02:18.056Z,73.52
2022-10-17T13:06:21.833Z,73.96
2022-10-17T13:14:34.700Z,74.45
2022-10-17T13:18:37.662Z,74.62
2022-10-17T13:22:45.165Z,74.29
2022-10-17T13:26:46.649Z,73.50
2022-10-17T13:30:49.833Z,71.11
2022-10-17T13:35:13.253Z,74.47
2022-10-17T13:39:19.644Z,74.94
2022-10-17T13:43:22.958Z,74.67
2022-10-17T13:47:26.926Z,74.88
2022-10-17T13:51:29.774Z,75.29
2022-10-17T13:55:31.338Z,76.06
2022-10-17T13:59:38.557Z,75.56
2022-10-17T14:03:48.285Z,75.90
2022-10-17T14:08:12.363Z,74.69
2022-10-17T14:12:15.174Z,75.11
2022-10-17T14:16:16.843Z,74.27
2022-10-17T14:24:44.731Z,70.10
2022-10-17T14:28:48.563Z,71.75
2022-10-17T14:32:50.337Z,71.48
2022-10-17T14:36:53.367Z,70.54
2022-10-17T14:41:09.754Z,66.06
2022-10-17T14:45:26.551Z,65.04
2022-10-17T14:49:34.504Z,65.75
2022-10-17T14:53:36.744Z,66.20
2022-10-17T14:57:44.645Z,63.88
2022-10-17T15:01:46.204Z,63.45
2022-10-17T15:05:48.411Z,64.09
2022-10-17T15:09:53.176Z,63.47
2022-10-17T15:13:56.014Z,65.61
2022-10-17T15:22:17.473Z,64.12
2022-10-17T15:26:22.029Z,63.75
2022-10-17T15:30:27.225Z,65.49
2022-10-17T15:34:28.836Z,64.80
2022-10-17T15:38:30.393Z,64.46
2022-10-17T15:42:32.566Z,65.25
2022-10-17T15:46:36.048Z,64.39
2022-10-17T15:50:37.683Z,63.78
2022-10-17T15:54:39.302Z,64.39
2022-10-17T15:58:40.807Z,64.57
2022-10-17T16:02:44.101Z,65.20
2022-10-17T16:06:45.760Z,66.59
2022-10-17T16:10:47.247Z,67.96
2022-10-17T16:14:48.739Z,69.81
2022-10-17T16:18:51.740Z,71.91
2022-10-17T16:22:54.043Z,74.12
2022-10-17T16:26:55.613Z,75.82
2022-10-17T16:30:57.085Z,76.66
2022-10-17T16:35:00.316Z,77.27
2022-10-17T16:39:01.892Z,77.92
2022-10-17T16:43:03.489Z,79.11
2022-10-17T16:47:05.884Z,79.81
2022-10-17T16:51:08.713Z,80.69
2022-10-17T16:55:10.737Z,82.10
2022-10-17T16:59:12.302Z,82.85
2022-10-17T17:03:13.854Z,82.61
2022-10-17T17:07:17.962Z,82.99
2022-10-17T17:11:21.235Z,83.04
2022-10-17T17:15:22.818Z,84.34
2022-10-17T17:19:24.507Z,84.24
2022-10-17T17:23:28.006Z,85.15
2022-10-17T17:27:29.822Z,85.63
2022-10-17T17:31:33.825Z,84.56
2022-10-17T17:35:38.699Z,84.32
2022-10-17T17:39:42.589Z,84.67
2022-10-17T17:43:45.276Z,84.93
2022-10-17T17:47:46.711Z,83.77
2022-10-17T17:51:48.270Z,84.39
2022-10-17T17:56:02.098Z,84.90
2022-10-17T18:00:05.012Z,85.44
2022-10-17T18:04:08.290Z,86.11
2022-10-17T18:08:09.695Z,86.11
2022-10-17T18:12:12.620Z,85.32
2022-10-17T18:16:14.229Z,85.23
2022-10-17T18:20:16.330Z,84.06
2022-10-17T18:24:19.732Z,84.48
2022-10-17T18:28:22.865Z,83.55
2022-10-17T18:32:24.588Z,83.84
2022-10-17T18:36:27.270Z,83.39
2022-10-17T18:40:28.892Z,83.58
2022-10-17T18:44:31.774Z,84.49
2022-10-17T18:48:34.046Z,84.78
2022-10-17T18:52:35.679Z,84.50
2022-10-17T18:56:37.396Z,84.85
2022-10-17T19:00:40.283Z,85.06
2022-10-17T19:04:41.756Z,85.38
2022-10-17T19:08:43.969Z,85.02
2022-10-17T19:12:45.514Z,84.34
2022-10-17T19:16:49.978Z,83.90
2022-10-17T19:20:51.630Z,84.99
2022-10-17T19:24:53.051Z,85.22
2022-10-17T19:28:54.728Z,85.25
2022-10-17T19:32:57.730Z,85.94
2022-10-17T19:36:59.310Z,86.49
2022-10-17T19:41:04.672Z,86.14
2022-10-17T19:45:08.319Z,86.09
2022-10-17T19:49:13.303Z,86.42
2022-10-17T19:53:14.838Z,87.11
2022-10-17T19:57:16.479Z,87.34
2022-10-17T20:01:20.086Z,87.22
2022-10-17T20:05:27.266Z,85.48
2022-10-17T20:09:29.626Z,84.89
2022-10-17T20:13:31.470Z,85.85
2022-10-17T20:21:42.483Z,86.34
2022-10-17T20:25:45.447Z,87.65
2022-10-17T20:29:47.086Z,88.08
2022-10-17T20:33:48.552Z,88.44
2022-10-17T20:37:51.525Z,88.52
2022-10-17T20:41:53.402Z,88.76
2022-10-17T20:46:03.601Z,87.62
2022-10-17T20:50:10.258Z,88.73
2022-10-17T20:54:13.235Z,89.14
2022-10-17T20:58:14.651Z,89.24
2022-10-17T21:02:16.258Z,88.91
2022-10-17T21:06:19.435Z,88.10
2022-10-17T21:10:34.942Z,89.01
2022-10-17T21:14:37.439Z,89.08
2022-10-17T21:18:39.902Z,89.73
2022-10-17T21:22:41.475Z,89.69
2022-10-17T21:26:45.782Z,90.20
2022-10-17T21:30:47.199Z,90.06
2022-10-17T21:34:48.746Z,90.12
2022-10-17T21:38:52.087Z,90.22
2022-10-17T21:42:55.029Z,90.63
2022-10-17T21:46:56.710Z,90.59
2022-10-17T21:50:59.846Z,90.90
2022-10-17T21:55:01.454Z,90.97
2022-10-17T21:59:04.992Z,90.80
2022-10-17T22:03:06.630Z,90.10
2022-10-17T22:07:08.120Z,89.66
2022-10-17T22:11:11.890Z,87.86
2022-10-17T22:19:18.009Z,89.27
2022-10-17T22:23:19.745Z,90.24
2022-10-17T22:27:21.287Z,90.52
2022-10-17T22:31:24.534Z,90.57
2022-10-17T22:35:26.227Z,91.20
2022-10-17T22:39:27.681Z,91.34
2022-10-17T22:43:29.473Z,90.46
2022-10-17T22:47:32.596Z,90.82
2022-10-17T22:51:34.370Z,90.99
2022-10-17T22:55:35.830Z,90.41
2022-10-17T22:59:37.510Z,90.62
2022-10-17T23:03:40.394Z,90.89
2022-10-17T23:07:42.022Z,91.17
2022-10-17T23:11:43.637Z,91.24
2022-10-17T23:15:45.534Z,91.69
2022-10-17T23:19:48.355Z,91.46
2022-10-17T23:23:49.978Z,91.68
2022-10-17T23:27:51.762Z,91.80
2022-10-17T23:31:54.678Z,92.08
2022-10-17T23:35:57.592Z,92.40
2022-10-17T23:39:59.306Z,92.44
2022-10-17T23:44:00.690Z,92.43
2022-10-17T23:48:02.222Z,92.28
2022-10-17T23:52:05.401Z,92.23
2022-10-17T23:56:08.237Z,92.24
